KESC

Delta County Airport

Escanaba, Michigan, USA
METAR KESC 241956Z AUTO 13011KT 10SM CLR 01/M06 A3011 RMK AO2 SLP222 T00061056 FZRANO
Observed Flight Rules
Feb-24 @ 19:56 UTC (18 minutes ago) Visual Flight Rules
Wind Visibility Clouds
130° at 11 knots 10 miles
  • Clear skies
Temperatures Readings
Current 1°C / 34°F
Dewpoint -6°C / 21°F
Humidity 60%
Altimeter 30.11" Hg
Pressure 1022.2 hPa
Elevation 187
METAR KESC 241956Z AUTO 13011KT 10SM CLR 01/M06 A3011 RMK AO2 SLP222 T00061056 FZRANO
Observed Flight Rules
Feb-24 @ 19:56 UTC
(18 minutes ago)
VFR
Wind Visibility
130° at 11 knots 10 miles
Clouds
  • Clear skies
Temperature Dewpoint
1°C / 34°F -6°C / 21°F
Humidity Altimeter Pressure
60% 30.11" Hg 1022.2 hPa